createdAt,value
2022-07-27T00:01:02.675Z,101861.75
2022-07-27T00:03:29.766Z,101857.91
2022-07-27T00:05:56.911Z,101863.56
2022-07-27T00:08:24.179Z,101858.56
2022-07-27T00:10:51.996Z,101862.06
2022-07-27T00:13:19.411Z,101870.16
2022-07-27T00:15:46.522Z,101869.19
2022-07-27T00:18:13.522Z,101872.38
2022-07-27T00:20:41.643Z,101871.16
2022-07-27T00:23:08.801Z,101870.97
2022-07-27T00:25:37.498Z,101869.16
2022-07-27T00:28:04.963Z,101860.28
2022-07-27T00:30:31.970Z,101861.94
2022-07-27T00:32:59.227Z,101852.81
2022-07-27T00:35:26.924Z,101858.31
2022-07-27T00:37:53.902Z,101860.94
2022-07-27T00:40:20.949Z,101856.25
2022-07-27T00:42:47.868Z,101863.56
2022-07-27T00:45:14.941Z,101865.19
2022-07-27T00:47:41.987Z,101866.25
2022-07-27T00:50:09.952Z,101852.81
2022-07-27T00:52:38.698Z,101855.19
2022-07-27T00:55:06.807Z,101850.03
2022-07-27T00:57:33.840Z,101841.34
2022-07-27T01:00:21.437Z,101840.88
2022-07-27T01:02:51.520Z,101844.53
2022-07-27T01:05:18.721Z,101845.22
2022-07-27T01:07:49.534Z,101847.16
2022-07-27T01:10:18.319Z,101857.78
2022-07-27T01:12:46.259Z,101859.00
2022-07-27T01:15:13.478Z,101855.25
2022-07-27T01:17:40.631Z,101855.09
2022-07-27T01:20:08.419Z,101857.59
2022-07-27T01:22:35.521Z,101847.19
2022-07-27T01:25:02.556Z,101855.97
2022-07-27T01:27:29.484Z,101846.84
2022-07-27T01:29:56.566Z,101852.81
2022-07-27T01:32:23.595Z,101851.41
2022-07-27T01:34:50.491Z,101859.28
2022-07-27T01:37:17.491Z,101853.56
2022-07-27T01:39:44.431Z,101853.19
2022-07-27T01:42:11.533Z,101850.69
2022-07-27T01:44:40.064Z,101853.19
2022-07-27T01:47:14.622Z,101851.59
2022-07-27T01:49:42.012Z,101847.41
2022-07-27T01:52:09.069Z,101845.56
2022-07-27T01:54:36.145Z,101846.31
2022-07-27T01:57:03.177Z,101841.63
2022-07-27T01:59:30.152Z,101843.09
2022-07-27T02:01:57.141Z,101831.47
2022-07-27T02:04:24.790Z,101831.06
2022-07-27T02:06:51.801Z,101838.41
2022-07-27T02:09:20.226Z,101843.00
2022-07-27T02:12:05.807Z,101839.56
2022-07-27T02:14:35.027Z,101835.44
2022-07-27T02:17:02.568Z,101834.13
2022-07-27T02:19:29.537Z,101827.41
2022-07-27T02:21:56.538Z,101829.63
2022-07-27T02:24:23.529Z,101822.25
2022-07-27T02:26:50.580Z,101825.00
2022-07-27T02:29:17.578Z,101826.53
2022-07-27T02:31:44.589Z,101829.78
2022-07-27T02:34:11.488Z,101828.22
2022-07-27T02:36:38.526Z,101828.38
2022-07-27T02:39:05.639Z,101839.81
2022-07-27T02:41:32.668Z,101832.50
2022-07-27T02:43:59.691Z,101841.91
2022-07-27T02:46:26.814Z,101836.59
2022-07-27T02:48:53.977Z,101835.63
2022-07-27T02:51:20.949Z,101824.59
2022-07-27T02:53:48.127Z,101825.69
2022-07-27T02:56:15.161Z,101829.59
2022-07-27T02:58:42.153Z,101825.69
2022-07-27T03:01:09.143Z,101819.56
2022-07-27T03:03:38.387Z,101826.16
2022-07-27T03:06:06.793Z,101830.22
2022-07-27T03:08:35.548Z,101830.19
2022-07-27T03:11:02.747Z,101833.03
2022-07-27T03:13:30.358Z,101835.69
2022-07-27T03:15:57.885Z,101832.88
2022-07-27T03:18:25.534Z,101844.91
2022-07-27T03:20:52.606Z,101838.53
2022-07-27T03:23:20.049Z,101838.44
2022-07-27T03:25:50.523Z,101847.88
2022-07-27T03:28:17.456Z,101847.72
2022-07-27T03:30:44.511Z,101858.22
2022-07-27T03:33:11.499Z,101845.59
2022-07-27T03:35:38.408Z,101843.91
2022-07-27T03:38:05.452Z,101848.53
2022-07-27T03:40:33.563Z,101841.22
2022-07-27T03:43:01.312Z,101835.78
2022-07-27T03:45:28.633Z,101836.91
2022-07-27T03:47:55.875Z,101843.72
2022-07-27T03:50:23.355Z,101845.63
2022-07-27T03:52:51.878Z,101835.00
2022-07-27T03:55:20.983Z,101855.75
2022-07-27T03:57:48.189Z,101851.31
2022-07-27T04:00:15.882Z,101843.88
2022-07-27T04:02:43.325Z,101841.59
2022-07-27T04:05:11.006Z,101852.47
2022-07-27T04:07:38.610Z,101842.75
2022-07-27T04:10:07.370Z,101841.84
2022-07-27T04:12:39.486Z,101847.28
2022-07-27T04:15:09.339Z,101858.09
2022-07-27T04:17:54.347Z,101866.53
2022-07-27T04:20:23.356Z,101857.94
2022-07-27T04:22:50.305Z,101855.69
2022-07-27T04:25:17.435Z,101852.00
2022-07-27T04:27:44.507Z,101850.09
2022-07-27T04:30:12.248Z,101841.63
2022-07-27T04:32:39.434Z,101852.31
2022-07-27T04:35:07.833Z,101853.97
2022-07-27T04:37:35.693Z,101847.06
2022-07-27T04:40:03.054Z,101849.72
2022-07-27T04:42:30.236Z,101849.22
2022-07-27T04:44:57.610Z,101847.56
2022-07-27T04:47:24.490Z,101847.72
2022-07-27T04:49:51.532Z,101849.69
2022-07-27T04:52:19.233Z,101850.50
2022-07-27T04:54:54.435Z,101857.31
2022-07-27T04:57:23.091Z,101856.59
2022-07-27T04:59:50.085Z,101864.00
2022-07-27T05:02:17.359Z,101868.78
2022-07-27T05:04:44.387Z,101871.44
2022-07-27T05:07:11.489Z,101874.06
2022-07-27T05:09:38.546Z,101855.75
2022-07-27T05:12:05.836Z,101869.13
2022-07-27T05:14:32.861Z,101873.66
2022-07-27T05:16:59.885Z,101873.53
2022-07-27T05:19:40.337Z,101867.69
2022-07-27T05:22:15.024Z,101872.63
2022-07-27T05:24:42.993Z,101870.28
2022-07-27T05:27:09.991Z,101878.03
2022-07-27T05:29:36.921Z,101872.47
2022-07-27T05:32:10.347Z,101881.84
2022-07-27T05:34:37.624Z,101881.84
2022-07-27T05:37:04.582Z,101877.84
2022-07-27T05:39:31.587Z,101886.75
2022-07-27T05:41:58.618Z,101883.06
2022-07-27T05:44:25.658Z,101884.91
2022-07-27T05:46:52.560Z,101890.50
2022-07-27T05:49:19.593Z,101890.47
2022-07-27T05:51:46.667Z,101890.50
2022-07-27T05:54:13.566Z,101893.34
2022-07-27T05:56:40.483Z,101900.16
2022-07-27T05:59:07.820Z,101893.72
2022-07-27T06:01:35.182Z,101889.78
2022-07-27T06:04:02.402Z,101889.00
2022-07-27T06:06:47.819Z,101889.22
2022-07-27T06:09:15.618Z,101884.81
2022-07-27T06:11:43.291Z,101877.47
2022-07-27T06:14:11.006Z,101885.31
2022-07-27T06:16:38.097Z,101890.69
2022-07-27T06:19:06.118Z,101886.31
2022-07-27T06:21:33.129Z,101894.41
2022-07-27T06:24:00.360Z,101894.94
2022-07-27T06:26:27.331Z,101883.16
2022-07-27T06:28:58.998Z,101881.97
2022-07-27T06:31:29.130Z,101882.94
2022-07-27T06:34:03.934Z,101873.50
2022-07-27T06:36:35.258Z,101884.75
2022-07-27T06:39:02.305Z,101885.72
2022-07-27T06:41:29.363Z,101882.97
2022-07-27T06:43:56.304Z,101884.66
2022-07-27T06:46:23.251Z,101888.75
2022-07-27T06:48:50.346Z,101891.66
2022-07-27T06:51:17.367Z,101883.28
2022-07-27T06:53:44.800Z,101885.94
2022-07-27T06:56:11.752Z,101890.81
2022-07-27T06:58:38.779Z,101883.25
2022-07-27T07:01:06.048Z,101885.50
2022-07-27T07:03:33.200Z,101882.50
2022-07-27T07:06:00.199Z,101885.38
2022-07-27T07:08:27.168Z,101880.97
2022-07-27T07:10:54.143Z,101892.53
2022-07-27T07:13:21.172Z,101877.50
2022-07-27T07:15:48.134Z,101883.75
2022-07-27T07:18:15.197Z,101881.19
2022-07-27T07:20:46.282Z,101892.88
2022-07-27T07:23:14.664Z,101884.34
2022-07-27T07:25:43.164Z,101881.44
2022-07-27T07:28:10.143Z,101885.81
2022-07-27T07:30:37.841Z,101894.81
2022-07-27T07:33:06.036Z,101899.28
2022-07-27T07:35:34.403Z,101894.00
2022-07-27T07:38:03.210Z,101903.84
2022-07-27T07:40:43.118Z,101898.97
2022-07-27T07:43:14.068Z,101898.88
2022-07-27T07:45:50.161Z,101882.88
2022-07-27T07:48:21.797Z,101899.78
2022-07-27T07:50:51.877Z,101904.59
2022-07-27T07:53:22.608Z,101904.72
2022-07-27T07:55:50.604Z,101904.31
2022-07-27T07:58:17.747Z,101902.31
2022-07-27T08:00:45.133Z,101908.38
2022-07-27T08:03:12.215Z,101910.97
2022-07-27T08:05:39.265Z,101907.94
2022-07-27T08:08:07.768Z,101912.59
2022-07-27T08:10:35.965Z,101916.09
2022-07-27T08:13:02.983Z,101920.41
2022-07-27T08:15:36.052Z,101918.28
2022-07-27T08:18:12.097Z,101914.44
2022-07-27T08:20:39.132Z,101918.53
2022-07-27T08:23:06.299Z,101910.66
2022-07-27T08:25:33.947Z,101907.13
2022-07-27T08:28:02.861Z,101906.16
2022-07-27T08:30:32.875Z,101910.28
2022-07-27T08:33:03.142Z,101902.13
2022-07-27T08:35:32.005Z,101900.34
2022-07-27T08:38:00.774Z,101907.25
2022-07-27T08:40:39.670Z,101886.31
2022-07-27T08:43:10.070Z,101899.72
2022-07-27T08:45:37.778Z,101886.94
2022-07-27T08:48:06.151Z,101894.72
2022-07-27T08:50:35.331Z,101905.81
2022-07-27T08:53:09.098Z,101891.94
2022-07-27T08:55:42.775Z,101899.72
2022-07-27T08:58:12.334Z,101894.84
2022-07-27T09:00:43.199Z,101895.53
2022-07-27T09:03:19.475Z,101896.59
2022-07-27T09:05:58.489Z,101893.34
2022-07-27T09:08:31.077Z,101891.44
2022-07-27T09:10:59.768Z,101895.19
2022-07-27T09:13:28.981Z,101897.25
2022-07-27T09:16:19.194Z,101885.78
2022-07-27T09:18:47.968Z,101890.22
2022-07-27T09:21:24.116Z,101900.63
2022-07-27T09:23:53.548Z,101893.78
2022-07-27T09:26:33.811Z,101883.22
2022-07-27T09:29:15.814Z,101888.16
2022-07-27T09:31:51.102Z,101888.13
2022-07-27T09:34:34.212Z,101894.41
2022-07-27T09:37:05.838Z,101888.88
2022-07-27T09:39:33.480Z,101889.41
2022-07-27T09:42:02.655Z,101892.91
2022-07-27T09:44:43.420Z,101891.38
2022-07-27T09:47:23.075Z,101885.84
2022-07-27T09:49:50.167Z,101879.75
2022-07-27T09:52:30.011Z,101884.38
2022-07-27T09:55:06.640Z,101877.72
2022-07-27T09:57:57.828Z,101882.94
2022-07-27T10:00:26.806Z,101879.22
2022-07-27T10:02:55.361Z,101880.34
2022-07-27T10:05:23.483Z,101883.38
2022-07-27T10:07:53.522Z,101876.38
2022-07-27T10:10:23.106Z,101885.91
2022-07-27T10:12:54.829Z,101884.81
2022-07-27T10:15:24.901Z,101895.09
2022-07-27T10:18:02.120Z,101897.47
2022-07-27T10:20:33.427Z,101902.41
2022-07-27T10:23:00.329Z,101911.50
2022-07-27T10:25:37.273Z,101912.56
2022-07-27T10:28:19.358Z,101905.22
2022-07-27T10:30:53.813Z,101902.56
2022-07-27T10:33:43.587Z,101898.31
2022-07-27T10:36:30.677Z,101900.56
2022-07-27T10:39:01.652Z,101904.41
2022-07-27T10:41:35.564Z,101902.91
2022-07-27T10:44:25.715Z,101904.41
2022-07-27T10:46:55.307Z,101892.81
2022-07-27T10:49:40.135Z,101894.97
2022-07-27T10:52:40.267Z,101891.56
2022-07-27T10:55:08.896Z,101886.00
2022-07-27T10:57:38.617Z,101888.78
2022-07-27T11:00:13.690Z,101880.16
2022-07-27T11:02:47.851Z,101877.53
2022-07-27T11:10:50.417Z,101886.88
2022-07-27T11:13:23.528Z,101882.59
2022-07-27T11:16:23.073Z,101876.66
2022-07-27T11:19:01.432Z,101874.66
2022-07-27T11:21:33.219Z,101875.66
2022-07-27T11:24:12.174Z,101872.19
2022-07-27T11:26:46.806Z,101873.25
2022-07-27T11:29:16.645Z,101869.31
2022-07-27T11:31:55.212Z,101858.00
2022-07-27T11:34:35.209Z,101860.66
2022-07-27T11:37:05.751Z,101863.69
2022-07-27T11:42:23.774Z,101844.59
2022-07-27T11:44:52.973Z,101843.63
2022-07-27T11:47:24.253Z,101840.78
2022-07-27T11:49:52.594Z,101837.53
2022-07-27T11:52:19.834Z,101837.22
2022-07-27T11:54:52.641Z,101833.69
2022-07-27T11:57:20.955Z,101829.66
2022-07-27T11:59:48.162Z,101830.38
2022-07-27T12:02:20.706Z,101822.41
2022-07-27T12:04:50.814Z,101823.72
2022-07-27T12:07:29.434Z,101817.91
2022-07-27T12:10:05.227Z,101817.44
2022-07-27T12:12:34.853Z,101811.47
2022-07-27T12:15:44.452Z,101823.69
2022-07-27T12:18:04.148Z,101812.94
2022-07-27T12:20:36.633Z,101810.22
2022-07-27T12:23:07.536Z,101808.16
2022-07-27T12:25:35.298Z,101810.50
2022-07-27T12:28:25.691Z,101794.75
2022-07-27T12:30:52.832Z,101796.59
2022-07-27T12:33:27.246Z,101804.47
2022-07-27T12:35:54.795Z,101808.75
2022-07-27T12:38:21.809Z,101791.19
2022-07-27T12:41:00.951Z,101797.47
2022-07-27T12:43:29.452Z,101790.25
2022-07-27T12:45:56.571Z,101783.94
2022-07-27T12:48:27.007Z,101788.59
2022-07-27T12:51:06.931Z,101786.69
2022-07-27T12:53:36.321Z,101771.97
2022-07-27T12:56:08.566Z,101784.97
2022-07-27T12:58:37.658Z,101781.19
2022-07-27T13:01:06.190Z,101783.09
2022-07-27T13:03:33.871Z,101793.19
2022-07-27T13:06:12.688Z,101776.44
2022-07-27T13:08:41.859Z,101771.72
2022-07-27T13:11:10.172Z,101781.63
2022-07-27T13:13:40.915Z,101779.22
2022-07-27T13:16:07.883Z,101781.13
2022-07-27T13:18:35.009Z,101784.41
2022-07-27T13:21:02.071Z,101775.56
2022-07-27T13:23:29.534Z,101781.63
2022-07-27T13:25:56.445Z,101782.25
2022-07-27T13:28:23.457Z,101788.34
2022-07-27T13:30:51.564Z,101780.25
2022-07-27T13:33:19.528Z,101782.78
2022-07-27T13:35:47.588Z,101778.28
2022-07-27T13:38:26.223Z,101781.84
2022-07-27T13:40:53.240Z,101783.19
2022-07-27T13:43:20.152Z,101784.00
2022-07-27T13:45:47.263Z,101776.59
2022-07-27T13:48:14.599Z,101779.13
2022-07-27T13:50:42.682Z,101776.78
2022-07-27T13:53:15.326Z,101776.34
2022-07-27T13:55:44.322Z,101764.00
2022-07-27T13:58:14.299Z,101773.63
2022-07-27T14:00:42.075Z,101767.84
2022-07-27T14:03:11.244Z,101767.28
2022-07-27T14:05:48.774Z,101769.22
2022-07-27T14:11:02.875Z,101758.94
2022-07-27T14:13:32.732Z,101760.84
2022-07-27T14:16:02.894Z,101753.84
2022-07-27T14:18:32.107Z,101757.00
2022-07-27T14:21:05.240Z,101759.50
2022-07-27T14:23:34.455Z,101745.97
2022-07-27T14:26:04.650Z,101744.56
2022-07-27T14:28:32.331Z,101740.75
2022-07-27T14:31:00.911Z,101749.84
2022-07-27T14:33:33.218Z,101745.25
2022-07-27T14:36:06.027Z,101736.22
2022-07-27T14:38:33.105Z,101731.53
2022-07-27T14:41:03.142Z,101729.00
2022-07-27T14:43:30.678Z,101736.66
2022-07-27T14:45:58.406Z,101734.72
2022-07-27T14:48:42.659Z,101728.00
2022-07-27T14:51:12.331Z,101722.44
2022-07-27T14:53:39.273Z,101722.00
2022-07-27T14:56:06.376Z,101722.84
2022-07-27T14:58:33.346Z,101720.31
2022-07-27T15:01:00.444Z,101720.66
2022-07-27T15:03:27.694Z,101720.66
2022-07-27T15:05:54.596Z,101725.16
2022-07-27T15:08:22.560Z,101720.50
2022-07-27T15:10:49.609Z,101716.63
2022-07-27T15:13:17.822Z,101717.56
2022-07-27T15:15:45.810Z,101716.91
2022-07-27T15:18:12.827Z,101715.41
2022-07-27T15:20:40.410Z,101713.34
2022-07-27T15:23:07.402Z,101716.19
2022-07-27T15:25:34.442Z,101713.00
2022-07-27T15:28:01.593Z,101704.69
2022-07-27T15:30:28.619Z,101710.53
2022-07-27T15:32:55.659Z,101704.38
2022-07-27T15:35:22.658Z,101699.41
2022-07-27T15:38:04.113Z,101698.38
2022-07-27T15:40:37.067Z,101695.34
2022-07-27T15:43:14.403Z,101692.50
2022-07-27T15:45:50.810Z,101689.13
2022-07-27T15:48:20.766Z,101683.94
2022-07-27T15:50:51.756Z,101681.59
2022-07-27T15:53:21.726Z,101681.53
2022-07-27T15:55:51.511Z,101685.91
2022-07-27T15:58:19.743Z,101675.31
2022-07-27T16:00:52.319Z,101663.78
2022-07-27T16:03:24.178Z,101665.47
2022-07-27T16:05:52.977Z,101668.94
2022-07-27T16:08:20.480Z,101668.50
2022-07-27T16:10:56.625Z,101665.72
2022-07-27T16:13:24.383Z,101668.91
2022-07-27T16:16:10.846Z,101671.06
2022-07-27T16:18:39.079Z,101666.09
2022-07-27T16:21:07.621Z,101669.06
2022-07-27T16:23:34.725Z,101669.25
2022-07-27T16:26:04.461Z,101667.78
2022-07-27T16:28:35.811Z,101660.53
2022-07-27T16:31:05.036Z,101662.06
2022-07-27T16:33:32.359Z,101653.88
2022-07-27T16:36:00.322Z,101650.41
2022-07-27T16:38:27.571Z,101640.69
2022-07-27T16:40:54.792Z,101640.47
2022-07-27T16:43:21.985Z,101640.25
2022-07-27T16:45:48.929Z,101638.00
2022-07-27T16:48:16.684Z,101653.59
2022-07-27T16:50:43.609Z,101651.06
2022-07-27T16:53:10.684Z,101647.81
2022-07-27T16:55:37.726Z,101641.81
2022-07-27T16:58:06.016Z,101648.72
2022-07-27T17:00:38.489Z,101660.03
2022-07-27T17:03:06.415Z,101634.06
2022-07-27T17:05:33.644Z,101646.72
2022-07-27T17:08:00.694Z,101635.28
2022-07-27T17:10:27.805Z,101632.44
2022-07-27T17:12:57.603Z,101625.63
2022-07-27T17:15:25.252Z,101630.38
2022-07-27T17:17:52.292Z,101635.59
2022-07-27T17:20:33.050Z,101635.84
2022-07-27T17:23:04.427Z,101637.63
2022-07-27T17:25:31.417Z,101639.56
2022-07-27T17:27:58.471Z,101636.97
2022-07-27T17:30:26.534Z,101643.06
2022-07-27T17:32:54.124Z,101640.88
2022-07-27T17:35:22.885Z,101646.56
2022-07-27T17:38:05.577Z,101647.22
2022-07-27T17:40:34.796Z,101640.72
2022-07-27T17:43:02.360Z,101638.94
2022-07-27T17:45:29.296Z,101641.06
2022-07-27T17:47:56.374Z,101635.59
2022-07-27T17:50:23.400Z,101636.13
2022-07-27T17:52:51.509Z,101625.72
2022-07-27T17:55:18.561Z,101636.31
2022-07-27T17:57:45.650Z,101632.81
2022-07-27T18:00:13.637Z,101637.28
2022-07-27T18:02:41.812Z,101630.63
2022-07-27T18:05:10.220Z,101633.78
2022-07-27T18:07:40.381Z,101633.75
2022-07-27T18:10:09.177Z,101634.97
2022-07-27T18:12:37.352Z,101630.22
2022-07-27T18:15:23.799Z,101627.47
2022-07-27T18:17:50.805Z,101629.25
2022-07-27T18:20:17.933Z,101624.63
2022-07-27T18:22:45.071Z,101631.06
2022-07-27T18:25:13.236Z,101630.66
2022-07-27T18:27:41.442Z,101632.66
2022-07-27T18:30:09.041Z,101637.53
2022-07-27T18:32:36.987Z,101645.50
2022-07-27T18:35:05.477Z,101638.09
2022-07-27T18:37:32.533Z,101644.75
2022-07-27T18:39:59.574Z,101652.81
2022-07-27T18:42:28.099Z,101658.28
2022-07-27T18:44:55.371Z,101648.16
2022-07-27T18:47:23.014Z,101658.19
2022-07-27T18:49:50.030Z,101656.00
2022-07-27T18:52:17.065Z,101650.25
2022-07-27T18:54:44.142Z,101654.81
2022-07-27T18:57:11.165Z,101658.19
2022-07-27T18:59:40.803Z,101650.72
2022-07-27T19:02:08.593Z,101650.81
2022-07-27T19:04:36.693Z,101653.13
2022-07-27T19:07:06.282Z,101660.53
2022-07-27T19:09:34.357Z,101655.97
2022-07-27T19:12:07.439Z,101660.09
2022-07-27T19:14:37.045Z,101652.78
2022-07-27T19:17:04.936Z,101659.59
2022-07-27T19:19:32.710Z,101651.69
2022-07-27T19:22:02.897Z,101666.28
2022-07-27T19:24:30.056Z,101665.91
2022-07-27T19:26:58.520Z,101664.03
2022-07-27T19:29:25.926Z,101670.38
2022-07-27T19:31:53.054Z,101673.09
2022-07-27T19:34:20.308Z,101677.78
2022-07-27T19:36:47.264Z,101671.69
2022-07-27T19:39:14.801Z,101670.84
2022-07-27T19:41:42.573Z,101671.16
2022-07-27T19:44:10.327Z,101683.69
2022-07-27T19:46:38.280Z,101685.50
2022-07-27T19:49:05.533Z,101681.19
2022-07-27T19:51:32.596Z,101686.38
2022-07-27T19:53:59.588Z,101685.78
2022-07-27T19:56:27.101Z,101682.00
2022-07-27T19:58:54.326Z,101686.72
2022-07-27T20:01:21.848Z,101689.34
2022-07-27T20:03:54.667Z,101688.59
2022-07-27T20:06:23.706Z,101698.31
2022-07-27T20:08:51.498Z,101692.03
2022-07-27T20:11:18.464Z,101684.38
2022-07-27T20:13:45.381Z,101688.88
2022-07-27T20:16:14.381Z,101681.75
2022-07-27T20:18:41.418Z,101675.28
2022-07-27T20:21:22.177Z,101680.59
2022-07-27T20:23:54.049Z,101675.50
2022-07-27T20:26:21.570Z,101679.59
2022-07-27T20:28:50.115Z,101685.91
2022-07-27T20:31:18.052Z,101681.75
2022-07-27T20:33:45.651Z,101687.72
2022-07-27T20:36:12.721Z,101688.19
2022-07-27T20:38:39.757Z,101695.94
2022-07-27T20:41:06.891Z,101697.41
2022-07-27T20:43:34.145Z,101696.59
2022-07-27T20:46:01.272Z,101699.06
2022-07-27T20:48:28.505Z,101700.94
2022-07-27T20:50:55.498Z,101702.53
2022-07-27T20:53:22.525Z,101701.09
2022-07-27T20:55:49.686Z,101715.00
2022-07-27T20:58:17.481Z,101700.34
2022-07-27T21:00:44.496Z,101701.31
2022-07-27T21:03:11.437Z,101705.38
2022-07-27T21:05:38.407Z,101703.34
2022-07-27T21:08:06.249Z,101698.75
2022-07-27T21:10:33.931Z,101700.00
2022-07-27T21:13:00.907Z,101692.25
2022-07-27T21:15:34.150Z,101687.28
2022-07-27T21:18:02.421Z,101687.66
2022-07-27T21:20:30.549Z,101678.06
2022-07-27T21:23:16.115Z,101677.44
2022-07-27T21:25:44.007Z,101685.50
2022-07-27T21:28:18.313Z,101694.63
2022-07-27T21:30:46.288Z,101696.94
2022-07-27T21:33:13.567Z,101697.09
2022-07-27T21:35:40.666Z,101700.72
2022-07-27T21:38:07.750Z,101694.75
2022-07-27T21:40:34.884Z,101696.47
2022-07-27T21:43:01.818Z,101700.50
2022-07-27T21:45:28.819Z,101690.25
2022-07-27T21:47:55.834Z,101681.22
2022-07-27T21:50:22.784Z,101681.94
2022-07-27T21:52:53.073Z,101685.50
2022-07-27T21:55:22.927Z,101692.34
2022-07-27T21:57:51.180Z,101693.91
2022-07-27T22:00:24.073Z,101699.59
2022-07-27T22:02:52.058Z,101681.91
2022-07-27T22:05:19.154Z,101688.28
2022-07-27T22:07:46.181Z,101698.81
2022-07-27T22:10:13.192Z,101692.91
2022-07-27T22:12:40.287Z,101688.00
2022-07-27T22:15:08.435Z,101686.06
2022-07-27T22:17:35.335Z,101675.91
2022-07-27T22:20:13.472Z,101683.97
2022-07-27T22:22:40.411Z,101684.03
2022-07-27T22:25:08.061Z,101677.28
2022-07-27T22:27:35.104Z,101671.97
2022-07-27T22:30:02.774Z,101672.59
2022-07-27T22:32:29.962Z,101670.63
2022-07-27T22:34:56.886Z,101678.78
2022-07-27T22:37:23.949Z,101667.56
2022-07-27T22:39:50.920Z,101671.25
2022-07-27T22:42:18.061Z,101681.56
2022-07-27T22:44:45.063Z,101678.22
2022-07-27T22:47:12.178Z,101673.88
2022-07-27T22:49:39.223Z,101668.34
2022-07-27T22:52:07.102Z,101678.75
2022-07-27T22:54:38.718Z,101681.72
2022-07-27T22:57:06.950Z,101679.66
2022-07-27T22:59:35.033Z,101677.53
2022-07-27T23:02:02.315Z,101682.28
2022-07-27T23:04:29.619Z,101674.25
2022-07-27T23:06:57.738Z,101682.72
2022-07-27T23:09:25.134Z,101678.59
2022-07-27T23:11:53.085Z,101679.28
2022-07-27T23:14:20.178Z,101677.50
2022-07-27T23:16:47.214Z,101679.78
2022-07-27T23:19:14.442Z,101669.81
2022-07-27T23:21:42.401Z,101669.06
2022-07-27T23:24:11.782Z,101668.13
2022-07-27T23:26:42.202Z,101677.69
2022-07-27T23:29:09.380Z,101678.97
2022-07-27T23:31:36.521Z,101668.78
2022-07-27T23:34:04.666Z,101672.41
2022-07-27T23:36:31.756Z,101669.19
2022-07-27T23:38:58.782Z,101655.72
2022-07-27T23:41:25.919Z,101660.00
2022-07-27T23:43:52.905Z,101646.22
2022-07-27T23:46:19.980Z,101647.06
2022-07-27T23:48:47.125Z,101643.81
2022-07-27T23:51:20.885Z,101637.78
2022-07-27T23:53:48.424Z,101640.66
2022-07-27T23:56:15.987Z,101634.94
2022-07-27T23:58:43.598Z,101639.56
